West Lebanon, Pennsylvania
Current Conditions -  °F | °C
As of 2:35 PM on Thursday 18 Dec 2014 (Local Time) from KIDI Reporting Station
Overcast Overcast  
Wind Chill: 18°   Ceiling: 1600
Heat Index: 28°   Visibility: 9mi
Dew Point: 25°   Wind: 12mph
Humidity: 86%   Direction: 280°W
Pressure: 30.14"   Gusts: NA
Location:  40.6°N, 79.35°W
Report Text: KIDI 181935Z AUTO 28010KT 9SM OVC016 M02/M04 A3014 RMK A01
Loading
Personal Weather Stations






























Interactive Weather Map New forecast layout! Learn more

10-Day Weather Forecast

Advertisements
Track Severe Weather on mobile